createdAt,value
2023-03-29T00:01:07.543Z,57.24
2023-03-29T00:04:13.612Z,57.60
2023-03-29T00:07:16.089Z,57.38
2023-03-29T00:10:18.564Z,57.54
2023-03-29T00:13:20.950Z,57.42
2023-03-29T00:16:23.324Z,57.65
2023-03-29T00:19:25.966Z,57.60
2023-03-29T00:22:28.342Z,57.47
2023-03-29T00:25:30.659Z,57.63
2023-03-29T00:28:32.969Z,57.86
2023-03-29T00:31:35.366Z,57.67
2023-03-29T00:34:37.777Z,57.95
2023-03-29T00:37:41.408Z,57.91
2023-03-29T00:40:47.089Z,57.63
2023-03-29T00:44:01.689Z,57.95
2023-03-29T00:47:04.129Z,58.35
2023-03-29T00:50:22.362Z,57.57
2023-03-29T00:53:33.507Z,57.69
2023-03-29T00:56:40.556Z,58.00
2023-03-29T00:59:43.800Z,57.62
2023-03-29T01:02:51.180Z,57.81
2023-03-29T01:06:00.285Z,57.81
2023-03-29T01:09:10.364Z,58.17
2023-03-29T01:12:17.240Z,57.74
2023-03-29T01:15:25.204Z,57.84
2023-03-29T01:18:27.549Z,58.04
2023-03-29T01:21:49.530Z,57.66
2023-03-29T01:25:07.718Z,57.59
2023-03-29T01:28:15.800Z,58.18
2023-03-29T01:31:23.279Z,57.90
2023-03-29T01:34:49.234Z,57.95
2023-03-29T01:38:20.769Z,57.91
2023-03-29T01:41:29.405Z,58.14
2023-03-29T01:45:13.204Z,57.97
2023-03-29T01:48:21.498Z,58.14
2023-03-29T01:51:37.619Z,57.92
2023-03-29T01:54:47.599Z,57.83
2023-03-29T01:57:52.200Z,58.07
2023-03-29T02:00:55.476Z,58.11
2023-03-29T02:04:03.110Z,58.35
2023-03-29T02:07:08.999Z,58.43
2023-03-29T02:10:12.134Z,58.50
2023-03-29T02:13:14.531Z,57.91
2023-03-29T02:16:17.246Z,58.09
2023-03-29T02:19:20.043Z,58.32
2023-03-29T02:22:28.911Z,58.21
2023-03-29T02:25:32.624Z,58.42
2023-03-29T02:28:35.590Z,58.40
2023-03-29T02:31:50.041Z,58.23
2023-03-29T02:35:00.148Z,58.08
2023-03-29T02:38:08.989Z,58.43
2023-03-29T02:41:12.230Z,58.11
2023-03-29T02:44:18.822Z,58.86
2023-03-29T02:47:25.706Z,58.76
2023-03-29T02:50:31.289Z,58.75
2023-03-29T02:53:41.413Z,58.47
2023-03-29T02:56:49.360Z,58.04
2023-03-29T02:59:52.795Z,58.55
2023-03-29T03:02:55.342Z,58.72
2023-03-29T03:05:57.981Z,58.76
2023-03-29T03:09:00.304Z,58.38
2023-03-29T03:12:07.707Z,58.88
2023-03-29T03:15:10.637Z,59.12
2023-03-29T03:18:16.178Z,58.77
2023-03-29T03:21:18.969Z,58.53
2023-03-29T03:24:21.356Z,59.15
2023-03-29T03:27:23.697Z,58.77
2023-03-29T03:30:26.089Z,58.59
2023-03-29T03:33:28.511Z,58.81
2023-03-29T03:36:49.449Z,58.84
2023-03-29T03:39:52.046Z,59.25
2023-03-29T03:42:54.512Z,58.56
2023-03-29T03:45:57.487Z,58.71
2023-03-29T03:49:01.047Z,58.90
2023-03-29T03:52:09.753Z,58.58
2023-03-29T03:55:12.346Z,59.06
2023-03-29T03:58:27.738Z,58.92
2023-03-29T04:01:30.173Z,59.03
2023-03-29T04:04:43.453Z,59.33
2023-03-29T04:07:48.977Z,58.79
2023-03-29T04:11:09.294Z,58.55
2023-03-29T04:14:13.725Z,58.30
2023-03-29T04:17:48.542Z,58.13
2023-03-29T04:21:13.810Z,57.70
2023-03-29T04:24:17.266Z,57.29
2023-03-29T04:27:29.837Z,57.04
2023-03-29T04:30:34.058Z,56.76
2023-03-29T04:33:54.876Z,56.56
2023-03-29T04:36:58.833Z,55.66
2023-03-29T04:40:01.433Z,55.18
2023-03-29T04:43:11.103Z,54.98
2023-03-29T04:46:20.120Z,53.81
2023-03-29T04:49:42.781Z,53.73
2023-03-29T04:52:52.061Z,52.68
2023-03-29T04:55:55.656Z,52.47
2023-03-29T04:59:17.008Z,51.33
2023-03-29T05:02:19.793Z,50.33
2023-03-29T05:05:24.773Z,50.17
2023-03-29T05:08:28.172Z,49.13
2023-03-29T05:11:48.553Z,48.77
2023-03-29T05:14:51.057Z,48.17
2023-03-29T05:17:53.652Z,48.78
2023-03-29T05:20:56.996Z,48.75
2023-03-29T05:24:01.673Z,47.98
2023-03-29T05:27:24.873Z,47.18
2023-03-29T05:30:38.184Z,47.08
2023-03-29T05:33:54.006Z,46.79
2023-03-29T05:36:57.004Z,46.77
2023-03-29T05:40:05.638Z,46.67
2023-03-29T05:43:12.375Z,46.94
2023-03-29T05:46:15.493Z,47.61
2023-03-29T05:49:24.240Z,47.96
2023-03-29T05:52:36.749Z,49.01
2023-03-29T05:55:39.061Z,48.73
2023-03-29T05:58:41.583Z,49.40
2023-03-29T06:01:47.031Z,49.72
2023-03-29T06:04:51.958Z,49.40
2023-03-29T06:08:01.002Z,49.84
2023-03-29T06:11:24.404Z,49.81
2023-03-29T06:14:45.734Z,50.65
2023-03-29T06:18:02.496Z,50.20
2023-03-29T06:21:05.876Z,50.58
2023-03-29T06:24:09.372Z,49.20
2023-03-29T06:27:17.744Z,48.58
2023-03-29T06:30:21.551Z,48.96
2023-03-29T06:33:30.716Z,47.90
2023-03-29T06:36:51.150Z,47.93
2023-03-29T06:39:57.038Z,47.23
2023-03-29T06:43:07.518Z,46.34
2023-03-29T06:46:42.566Z,45.94
2023-03-29T06:49:45.115Z,45.33
2023-03-29T06:53:05.380Z,44.59
2023-03-29T06:56:09.866Z,43.30
2023-03-29T06:59:21.029Z,42.74
2023-03-29T07:02:34.755Z,42.57
2023-03-29T07:05:47.586Z,42.07
2023-03-29T07:08:52.874Z,41.77
2023-03-29T07:12:15.563Z,41.60
2023-03-29T07:15:19.274Z,41.40
2023-03-29T07:18:41.762Z,41.10
2023-03-29T07:21:45.971Z,41.57
2023-03-29T07:24:49.710Z,41.30
2023-03-29T07:27:52.274Z,41.21
2023-03-29T07:31:02.369Z,40.94
2023-03-29T07:34:10.780Z,41.44
2023-03-29T07:37:13.553Z,40.82
2023-03-29T07:40:19.798Z,40.96
2023-03-29T07:43:31.368Z,41.04
2023-03-29T07:46:34.120Z,41.61
2023-03-29T07:49:36.762Z,41.69
2023-03-29T07:52:39.711Z,41.90
2023-03-29T07:55:47.690Z,41.52
2023-03-29T07:59:09.349Z,42.07
2023-03-29T08:02:13.712Z,41.87
2023-03-29T08:05:37.761Z,42.89
2023-03-29T08:08:46.912Z,42.40
2023-03-29T08:11:52.028Z,42.54
2023-03-29T08:15:03.173Z,42.51
2023-03-29T08:18:09.085Z,43.43
2023-03-29T08:21:11.842Z,43.44
2023-03-29T08:24:14.833Z,43.96
2023-03-29T08:27:22.042Z,44.04
2023-03-29T08:30:25.407Z,44.33
2023-03-29T08:33:28.081Z,43.39
2023-03-29T08:36:54.163Z,43.60
2023-03-29T08:40:06.307Z,43.51
2023-03-29T08:43:49.118Z,43.19
2023-03-29T08:47:25.648Z,42.64
2023-03-29T08:50:35.272Z,43.01
2023-03-29T08:53:47.262Z,42.74
2023-03-29T08:57:21.239Z,42.40
2023-03-29T09:00:41.309Z,42.13
2023-03-29T09:03:57.194Z,42.48
2023-03-29T09:07:11.905Z,42.26
2023-03-29T09:10:31.500Z,42.51
2023-03-29T09:13:43.903Z,42.35
2023-03-29T09:16:59.140Z,42.62
2023-03-29T09:20:27.181Z,42.25
2023-03-29T09:23:52.571Z,42.65
2023-03-29T09:27:23.862Z,42.68
2023-03-29T09:30:41.646Z,43.07
2023-03-29T09:33:52.532Z,43.29
2023-03-29T09:37:21.465Z,43.35
2023-03-29T09:40:34.764Z,43.55
2023-03-29T09:43:48.403Z,43.40
2023-03-29T09:47:36.287Z,43.30
2023-03-29T09:50:47.441Z,43.11
2023-03-29T09:53:50.652Z,43.02
2023-03-29T09:57:17.940Z,43.41
2023-03-29T10:00:21.000Z,43.47
2023-03-29T10:03:32.301Z,43.04
2023-03-29T10:06:49.266Z,43.79
2023-03-29T10:09:55.997Z,44.11
2023-03-29T10:13:05.526Z,44.70
2023-03-29T10:16:10.105Z,44.92
2023-03-29T10:19:22.552Z,45.01
2023-03-29T10:22:27.821Z,45.09
2023-03-29T10:25:32.971Z,44.39
2023-03-29T10:28:37.106Z,41.81
2023-03-29T10:31:42.629Z,41.69
2023-03-29T10:34:46.989Z,41.56
2023-03-29T10:37:52.098Z,41.72
2023-03-29T10:40:55.811Z,41.76
2023-03-29T10:44:00.134Z,41.35
2023-03-29T10:47:14.348Z,41.89
2023-03-29T10:50:17.130Z,42.11
2023-03-29T10:53:35.382Z,42.47
2023-03-29T10:56:51.983Z,42.61
2023-03-29T11:00:20.527Z,42.98
2023-03-29T11:03:22.926Z,43.09
2023-03-29T11:06:45.613Z,42.92
2023-03-29T11:10:21.473Z,43.67
2023-03-29T11:13:42.541Z,44.27
2023-03-29T11:17:20.230Z,44.91
2023-03-29T11:20:23.051Z,45.01
2023-03-29T11:23:47.106Z,44.99
2023-03-29T11:26:59.421Z,45.37
2023-03-29T11:30:06.520Z,44.98
2023-03-29T11:33:36.447Z,44.95
2023-03-29T11:36:50.839Z,44.65
2023-03-29T11:40:32.035Z,44.44
2023-03-29T11:43:37.931Z,44.58
2023-03-29T11:46:42.029Z,44.51
2023-03-29T11:49:49.369Z,44.37
2023-03-29T11:52:55.428Z,44.42
2023-03-29T11:56:13.593Z,44.31
2023-03-29T11:59:23.921Z,44.23
2023-03-29T12:02:54.260Z,44.23
2023-03-29T12:06:12.552Z,44.25
2023-03-29T12:09:28.063Z,44.28
2023-03-29T12:12:43.660Z,44.45
2023-03-29T12:15:50.629Z,43.85
2023-03-29T12:18:57.730Z,44.28
2023-03-29T12:22:01.358Z,44.33
2023-03-29T12:25:09.642Z,44.65
2023-03-29T12:28:57.329Z,44.86
2023-03-29T12:31:59.743Z,45.12
2023-03-29T12:35:31.045Z,44.85
2023-03-29T12:38:52.826Z,44.60
2023-03-29T12:42:21.093Z,44.53
2023-03-29T12:45:48.619Z,44.02
2023-03-29T12:49:01.230Z,43.90
2023-03-29T12:52:27.431Z,43.81
2023-03-29T12:55:47.857Z,43.50
2023-03-29T12:59:07.729Z,43.18
2023-03-29T13:02:13.980Z,43.74
2023-03-29T13:05:32.448Z,43.93
2023-03-29T13:08:43.579Z,44.00
2023-03-29T13:11:53.075Z,44.42
2023-03-29T13:14:59.416Z,43.38
2023-03-29T13:18:12.378Z,44.15
2023-03-29T13:21:27.701Z,43.25
2023-03-29T13:24:36.158Z,43.24
2023-03-29T13:27:59.046Z,43.78
2023-03-29T13:31:16.851Z,43.61
2023-03-29T13:34:30.291Z,43.82
2023-03-29T13:38:01.833Z,43.71
2023-03-29T13:41:06.118Z,43.86
2023-03-29T13:44:34.365Z,44.01
2023-03-29T13:47:58.397Z,43.65
2023-03-29T13:51:19.011Z,44.42
2023-03-29T13:54:27.228Z,44.76
2023-03-29T13:57:41.524Z,44.79
2023-03-29T14:00:54.192Z,45.14
2023-03-29T14:03:56.827Z,45.43
2023-03-29T14:06:59.693Z,44.99
2023-03-29T14:10:02.392Z,44.50
2023-03-29T14:13:04.862Z,44.05
2023-03-29T14:16:10.380Z,43.90
2023-03-29T14:19:18.977Z,43.44
2023-03-29T14:22:21.725Z,43.05
2023-03-29T14:25:24.287Z,42.43
2023-03-29T14:28:28.468Z,41.98
2023-03-29T14:31:36.755Z,41.39
2023-03-29T14:34:40.222Z,41.05
2023-03-29T14:37:42.685Z,40.45
2023-03-29T14:40:45.718Z,40.16
2023-03-29T14:43:48.189Z,39.59
2023-03-29T14:46:50.546Z,39.04
2023-03-29T14:49:54.532Z,38.92
2023-03-29T14:52:58.026Z,38.57
2023-03-29T14:56:02.216Z,38.44
2023-03-29T14:59:05.045Z,38.27
2023-03-29T15:02:32.476Z,38.12
2023-03-29T15:05:41.187Z,38.42
2023-03-29T15:08:54.404Z,38.49
2023-03-29T15:12:06.572Z,38.37
2023-03-29T15:15:12.042Z,38.18
2023-03-29T15:18:16.032Z,38.30
2023-03-29T15:21:21.414Z,38.63
2023-03-29T15:24:29.314Z,38.71
2023-03-29T15:27:41.795Z,39.05
2023-03-29T15:30:49.464Z,40.01
2023-03-29T15:34:14.176Z,39.97
2023-03-29T15:37:16.873Z,39.67
2023-03-29T15:40:24.000Z,39.92
2023-03-29T15:43:27.011Z,39.91
2023-03-29T15:46:29.407Z,40.97
2023-03-29T15:49:31.750Z,40.69
2023-03-29T15:52:34.269Z,40.62
2023-03-29T15:55:39.898Z,40.84
2023-03-29T15:58:42.325Z,41.39
2023-03-29T16:01:45.291Z,41.52
2023-03-29T16:04:47.780Z,41.82
2023-03-29T16:07:50.444Z,41.78
2023-03-29T16:10:52.831Z,42.13
2023-03-29T16:13:56.011Z,42.36
2023-03-29T16:16:59.557Z,42.74
2023-03-29T16:20:01.994Z,42.98
2023-03-29T16:23:09.377Z,42.74
2023-03-29T16:26:12.681Z,42.77
2023-03-29T16:29:17.368Z,42.42
2023-03-29T16:32:19.968Z,42.36
2023-03-29T16:35:27.828Z,41.98
2023-03-29T16:38:30.819Z,41.53
2023-03-29T16:41:33.303Z,41.39
2023-03-29T16:44:35.794Z,40.96
2023-03-29T16:47:39.458Z,40.51
2023-03-29T16:50:41.973Z,40.76
2023-03-29T16:53:44.385Z,40.37
2023-03-29T16:56:47.043Z,40.52
2023-03-29T16:59:49.660Z,40.54
2023-03-29T17:02:52.810Z,40.76
2023-03-29T17:05:55.540Z,40.74
2023-03-29T17:08:59.144Z,40.88
2023-03-29T17:12:01.561Z,41.14
2023-03-29T17:15:05.698Z,41.42
2023-03-29T17:18:08.324Z,41.55
2023-03-29T17:21:10.900Z,41.91
2023-03-29T17:24:13.208Z,41.79
2023-03-29T17:27:15.759Z,42.06
2023-03-29T17:30:18.407Z,41.94
2023-03-29T17:33:22.826Z,42.58
2023-03-29T17:36:26.049Z,42.44
2023-03-29T17:39:28.447Z,42.90
2023-03-29T17:42:30.805Z,43.21
2023-03-29T17:45:35.386Z,43.28
2023-03-29T17:48:37.798Z,43.29
2023-03-29T17:51:40.374Z,43.69
2023-03-29T17:54:42.804Z,43.86
2023-03-29T17:57:45.356Z,44.10
2023-03-29T18:00:47.844Z,44.05
2023-03-29T18:03:50.477Z,44.55
2023-03-29T18:06:53.438Z,44.44
2023-03-29T18:09:56.029Z,44.83
2023-03-29T18:12:58.553Z,45.15
2023-03-29T18:16:01.683Z,45.43
2023-03-29T18:19:04.546Z,45.60
2023-03-29T18:22:06.906Z,45.81
2023-03-29T18:25:09.746Z,46.18
2023-03-29T18:28:12.469Z,46.08
2023-03-29T18:31:16.122Z,46.09
2023-03-29T18:34:18.893Z,46.24
2023-03-29T18:37:21.465Z,46.51
2023-03-29T18:40:24.893Z,46.68
2023-03-29T18:43:27.470Z,46.61
2023-03-29T18:46:33.337Z,46.73
2023-03-29T18:49:36.834Z,47.20
2023-03-29T18:52:40.073Z,47.10
2023-03-29T18:55:43.201Z,47.24
2023-03-29T18:58:46.387Z,47.44
2023-03-29T19:01:49.076Z,47.57
2023-03-29T19:04:51.722Z,47.60
2023-03-29T19:07:54.278Z,47.74
2023-03-29T19:11:04.745Z,48.09
2023-03-29T19:14:09.201Z,48.25
2023-03-29T19:17:11.801Z,48.33
2023-03-29T19:20:14.169Z,48.45
2023-03-29T19:23:18.037Z,48.43
2023-03-29T19:26:20.661Z,48.66
2023-03-29T19:29:23.645Z,48.90
2023-03-29T19:32:27.287Z,48.88
2023-03-29T19:35:29.915Z,48.81
2023-03-29T19:38:32.502Z,48.84
2023-03-29T19:41:34.920Z,48.89
2023-03-29T19:44:38.359Z,49.27
2023-03-29T19:47:42.981Z,49.44
2023-03-29T19:50:46.700Z,49.44
2023-03-29T19:53:49.943Z,49.39
2023-03-29T19:56:52.878Z,49.33
2023-03-29T19:59:55.493Z,49.57
2023-03-29T20:02:57.845Z,49.72
2023-03-29T20:06:00.565Z,49.41
2023-03-29T20:09:05.179Z,49.61
2023-03-29T20:12:07.784Z,49.99
2023-03-29T20:15:10.744Z,50.04
2023-03-29T20:18:13.383Z,49.82
2023-03-29T20:21:18.810Z,49.75
2023-03-29T20:24:22.189Z,49.95
2023-03-29T20:27:25.591Z,50.28
2023-03-29T20:30:28.036Z,50.33
2023-03-29T20:33:30.606Z,50.63
2023-03-29T20:36:33.150Z,50.30
2023-03-29T20:39:35.745Z,50.48
2023-03-29T20:42:38.765Z,50.57
2023-03-29T20:45:52.597Z,50.31
2023-03-29T20:48:56.479Z,50.77
2023-03-29T20:51:58.824Z,50.97
2023-03-29T20:55:01.152Z,50.84
2023-03-29T20:58:03.686Z,51.02
2023-03-29T21:01:06.329Z,51.06
2023-03-29T21:04:09.406Z,51.08
2023-03-29T21:07:11.797Z,51.22
2023-03-29T21:10:15.624Z,50.80
2023-03-29T21:13:18.420Z,50.90
2023-03-29T21:16:20.865Z,50.90
2023-03-29T21:19:24.261Z,50.86
2023-03-29T21:22:26.570Z,51.05
2023-03-29T21:25:29.024Z,51.10
2023-03-29T21:28:31.496Z,51.02
2023-03-29T21:31:33.837Z,51.45
2023-03-29T21:34:36.300Z,51.04
2023-03-29T21:37:38.681Z,51.15
2023-03-29T21:40:41.043Z,51.22
2023-03-29T21:43:43.731Z,51.27
2023-03-29T21:46:46.286Z,51.18
2023-03-29T21:49:48.712Z,51.44
2023-03-29T21:52:51.150Z,51.40
2023-03-29T21:55:54.045Z,51.42
2023-03-29T21:58:56.415Z,51.72
2023-03-29T22:01:58.786Z,51.73
2023-03-29T22:05:01.215Z,51.62
2023-03-29T22:08:04.824Z,51.27
2023-03-29T22:11:13.864Z,51.65
2023-03-29T22:14:16.368Z,51.87
2023-03-29T22:17:18.744Z,51.48
2023-03-29T22:20:21.058Z,51.68
2023-03-29T22:23:24.955Z,51.48
2023-03-29T22:26:29.940Z,51.71
2023-03-29T22:29:32.574Z,51.66
2023-03-29T22:32:34.987Z,52.11
2023-03-29T22:35:37.438Z,52.22
2023-03-29T22:38:39.869Z,52.09
2023-03-29T22:41:42.346Z,51.60
2023-03-29T22:44:44.674Z,51.98
2023-03-29T22:47:47.216Z,51.86
2023-03-29T22:50:49.568Z,52.07
2023-03-29T22:53:52.093Z,52.38
2023-03-29T22:56:54.620Z,52.17
2023-03-29T22:59:56.950Z,52.01
2023-03-29T23:02:59.459Z,52.24
2023-03-29T23:06:04.681Z,52.31
2023-03-29T23:09:07.161Z,52.33
2023-03-29T23:12:09.817Z,52.50
2023-03-29T23:15:12.505Z,52.71
2023-03-29T23:18:22.131Z,52.46
2023-03-29T23:21:25.034Z,52.85
2023-03-29T23:24:30.456Z,52.42
2023-03-29T23:27:33.186Z,52.69
2023-03-29T23:30:38.675Z,52.35
2023-03-29T23:33:42.861Z,52.72
2023-03-29T23:36:45.367Z,52.68
2023-03-29T23:39:47.718Z,52.46
2023-03-29T23:42:50.478Z,52.54
2023-03-29T23:45:57.238Z,52.57
2023-03-29T23:48:59.539Z,52.71
2023-03-29T23:52:02.750Z,52.67
2023-03-29T23:55:05.573Z,52.81
2023-03-29T23:58:09.128Z,52.86
